createdAt,value
2019-06-27T00:01:39.985Z,24.14
2019-06-27T00:04:11.211Z,24.13
2019-06-27T00:06:42.090Z,24.12
2019-06-27T00:09:14.535Z,24.14
2019-06-27T00:11:45.256Z,24.15
2019-06-27T00:14:15.925Z,24.15
2019-06-27T00:16:46.669Z,24.14
2019-06-27T00:19:17.461Z,24.11
2019-06-27T00:21:48.250Z,24.11
2019-06-27T00:24:19.105Z,24.08
2019-06-27T00:26:57.041Z,24.06
2019-06-27T00:29:22.442Z,24.02
2019-06-27T00:31:53.266Z,23.93
2019-06-27T00:34:24.058Z,23.88
2019-06-27T00:36:54.827Z,23.85
2019-06-27T00:39:25.602Z,23.85
2019-06-27T00:41:56.441Z,23.92
2019-06-27T00:44:27.223Z,23.93
2019-06-27T00:46:58.028Z,23.92
2019-06-27T00:49:28.716Z,23.93
2019-06-27T00:51:59.582Z,23.89
2019-06-27T00:54:30.331Z,23.91
2019-06-27T00:57:13.659Z,23.92
2019-06-27T00:59:33.940Z,23.94
2019-06-27T01:02:04.728Z,23.94
2019-06-27T01:04:35.438Z,23.93
2019-06-27T01:07:06.294Z,23.92
2019-06-27T01:09:37.149Z,23.93
2019-06-27T01:12:07.876Z,23.94
2019-06-27T01:14:38.645Z,23.93
2019-06-27T01:17:09.806Z,23.90
2019-06-27T01:19:40.660Z,23.85
2019-06-27T01:22:11.940Z,23.80
2019-06-27T01:24:42.696Z,23.79
2019-06-27T01:27:28.875Z,23.75
2019-06-27T01:29:45.852Z,23.73
2019-06-27T01:32:16.558Z,23.69
2019-06-27T01:34:47.490Z,23.72
2019-06-27T01:37:18.298Z,23.72
2019-06-27T01:39:51.676Z,23.73
2019-06-27T01:42:22.422Z,23.74
2019-06-27T01:44:58.065Z,23.73
2019-06-27T01:47:28.840Z,23.76
2019-06-27T01:49:59.670Z,23.79
2019-06-27T01:52:30.520Z,23.81
2019-06-27T01:55:01.286Z,23.83
2019-06-27T01:57:46.156Z,23.84
2019-06-27T02:00:11.119Z,23.81
2019-06-27T02:02:42.004Z,23.78
2019-06-27T02:05:13.766Z,23.78
2019-06-27T02:07:44.730Z,23.75
2019-06-27T02:10:15.968Z,23.72
2019-06-27T02:12:46.832Z,23.71
2019-06-27T02:15:22.089Z,23.67
2019-06-27T02:17:51.927Z,23.63
2019-06-27T02:20:22.758Z,23.61
2019-06-27T02:22:53.558Z,23.59
2019-06-27T02:25:24.499Z,23.58
2019-06-27T02:28:03.769Z,23.59
2019-06-27T02:30:30.823Z,23.58
2019-06-27T02:33:01.569Z,23.56
2019-06-27T02:35:32.488Z,23.55
2019-06-27T02:38:03.349Z,23.55
2019-06-27T02:40:34.145Z,23.53
2019-06-27T02:43:05.125Z,23.51
2019-06-27T02:45:35.891Z,23.48
2019-06-27T02:48:06.755Z,23.43
2019-06-27T02:50:37.600Z,23.40
2019-06-27T02:53:08.458Z,23.37
2019-06-27T02:55:39.237Z,23.34
2019-06-27T02:58:28.746Z,23.31
2019-06-27T03:00:42.415Z,23.27
2019-06-27T03:03:13.141Z,23.24
2019-06-27T03:05:43.968Z,23.24
2019-06-27T03:08:15.026Z,23.24
2019-06-27T03:10:45.898Z,23.22
2019-06-27T03:13:16.753Z,23.20
2019-06-27T03:15:47.542Z,23.20
2019-06-27T03:18:18.394Z,23.17
2019-06-27T03:20:49.085Z,23.17
2019-06-27T03:23:19.871Z,23.18
2019-06-27T03:25:50.561Z,23.23
2019-06-27T03:28:21.445Z,23.25
2019-06-27T03:30:52.326Z,23.26
2019-06-27T03:33:23.049Z,23.26
2019-06-27T03:35:54.102Z,23.26
2019-06-27T03:38:25.064Z,23.24
2019-06-27T03:40:55.872Z,23.24
2019-06-27T03:43:26.577Z,23.24
2019-06-27T03:45:57.372Z,23.26
2019-06-27T03:48:28.228Z,23.28
2019-06-27T03:50:58.938Z,23.34
2019-06-27T03:53:29.664Z,23.38
2019-06-27T03:56:03.241Z,23.42
2019-06-27T03:58:34.127Z,23.43
2019-06-27T04:01:05.219Z,23.47
2019-06-27T04:03:35.994Z,23.52
2019-06-27T04:06:06.676Z,23.55
2019-06-27T04:08:37.390Z,23.55
2019-06-27T04:11:08.072Z,23.58
2019-06-27T04:13:38.868Z,23.61
2019-06-27T04:16:09.660Z,23.65
2019-06-27T04:18:40.598Z,23.72
2019-06-27T04:21:14.559Z,23.77
2019-06-27T04:23:45.396Z,23.80
2019-06-27T04:26:16.270Z,23.86
2019-06-27T04:28:47.185Z,23.90
2019-06-27T04:31:17.976Z,23.95
2019-06-27T04:33:48.833Z,23.98
2019-06-27T04:36:19.616Z,24.06
2019-06-27T04:38:50.601Z,24.15
2019-06-27T04:41:21.486Z,24.20
2019-06-27T04:43:52.266Z,24.30
2019-06-27T04:46:23.630Z,24.38
2019-06-27T04:48:54.421Z,24.46
2019-06-27T04:51:25.371Z,24.50
2019-06-27T04:53:56.163Z,24.55
2019-06-27T04:56:26.884Z,24.62
2019-06-27T04:58:57.589Z,24.81
2019-06-27T05:01:28.286Z,24.91
2019-06-27T05:03:59.061Z,24.98
2019-06-27T05:06:29.905Z,25.01
2019-06-27T05:09:00.671Z,25.07
2019-06-27T05:11:31.465Z,25.09
2019-06-27T05:14:02.181Z,25.15
2019-06-27T05:16:32.943Z,25.10
2019-06-27T05:19:03.666Z,25.09
2019-06-27T05:21:34.382Z,25.11
2019-06-27T05:24:05.240Z,25.18
2019-06-27T05:26:36.972Z,25.22
2019-06-27T05:29:07.672Z,25.22
2019-06-27T05:31:38.409Z,25.24
2019-06-27T05:34:09.114Z,25.39
2019-06-27T05:36:39.804Z,25.48
2019-06-27T05:39:10.652Z,25.59
2019-06-27T05:41:41.458Z,25.58
2019-06-27T05:44:12.170Z,25.61
2019-06-27T05:46:42.848Z,25.65
2019-06-27T05:49:13.774Z,25.72
2019-06-27T05:51:44.476Z,25.79
2019-06-27T05:54:15.344Z,25.91
2019-06-27T05:56:46.485Z,25.95
2019-06-27T05:59:17.310Z,26.00
2019-06-27T06:01:48.166Z,26.02
2019-06-27T06:04:18.877Z,26.06
2019-06-27T06:06:49.592Z,26.25
2019-06-27T06:09:20.353Z,26.75
2019-06-27T06:11:51.320Z,27.32
2019-06-27T06:14:22.177Z,27.45
2019-06-27T06:16:53.027Z,27.60
2019-06-27T06:19:23.860Z,27.69
2019-06-27T06:21:55.039Z,28.21
2019-06-27T06:24:25.993Z,28.83
2019-06-27T06:26:56.755Z,29.65
2019-06-27T06:29:27.522Z,30.41
2019-06-27T06:31:58.308Z,31.11
2019-06-27T06:34:29.148Z,32.34
2019-06-27T06:36:59.986Z,32.63
2019-06-27T06:39:30.893Z,32.63
2019-06-27T06:42:01.641Z,33.32
2019-06-27T06:44:32.809Z,32.70
2019-06-27T06:47:03.621Z,32.70
2019-06-27T06:49:34.505Z,32.89
2019-06-27T06:52:05.344Z,33.27
2019-06-27T06:54:36.138Z,33.68
2019-06-27T06:57:06.981Z,34.33
2019-06-27T06:59:37.952Z,34.22
2019-06-27T07:02:08.872Z,34.67
2019-06-27T07:04:39.765Z,34.52
2019-06-27T07:07:13.165Z,34.59
2019-06-27T07:09:43.197Z,35.39
2019-06-27T07:12:14.120Z,35.74
2019-06-27T07:14:44.969Z,35.68
2019-06-27T07:17:15.849Z,35.79
2019-06-27T07:19:46.690Z,35.82
2019-06-27T07:22:20.523Z,35.85
2019-06-27T07:24:51.369Z,35.01
2019-06-27T07:27:22.224Z,34.36
2019-06-27T07:29:53.081Z,34.40
2019-06-27T07:32:23.826Z,34.69
2019-06-27T07:34:54.709Z,34.49
2019-06-27T07:37:25.498Z,33.46
2019-06-27T07:39:56.420Z,32.81
2019-06-27T07:42:27.212Z,33.43
2019-06-27T07:44:58.025Z,33.26
2019-06-27T07:47:28.874Z,32.78
2019-06-27T07:49:59.673Z,32.54
2019-06-27T07:52:30.662Z,32.21
2019-06-27T07:55:01.586Z,32.20
2019-06-27T07:57:32.456Z,32.13
2019-06-27T08:00:08.000Z,32.14
2019-06-27T08:02:38.998Z,31.89
2019-06-27T08:05:10.537Z,32.02
2019-06-27T08:07:41.737Z,32.39
2019-06-27T08:10:14.393Z,32.80
2019-06-27T08:12:45.228Z,33.21
2019-06-27T08:15:16.658Z,33.07
2019-06-27T08:17:47.478Z,32.46
2019-06-27T08:20:18.482Z,32.04
2019-06-27T08:22:49.285Z,32.31
2019-06-27T08:25:20.486Z,32.64
2019-06-27T08:27:51.327Z,32.82
2019-06-27T08:30:22.328Z,32.52
2019-06-27T08:32:56.207Z,32.40
2019-06-27T08:35:26.997Z,32.47
2019-06-27T08:37:57.829Z,32.65
2019-06-27T08:40:28.786Z,32.79
2019-06-27T08:42:59.612Z,32.79
2019-06-27T08:45:30.476Z,32.92
2019-06-27T08:48:01.326Z,33.16
2019-06-27T08:50:32.194Z,33.32
2019-06-27T08:53:03.095Z,33.46
2019-06-27T08:55:33.959Z,33.25
2019-06-27T08:58:04.821Z,33.37
2019-06-27T09:00:35.679Z,33.53
2019-06-27T09:03:06.644Z,33.24
2019-06-27T09:05:37.696Z,33.40
2019-06-27T09:08:08.642Z,33.44
2019-06-27T09:10:39.621Z,33.61
2019-06-27T09:13:10.452Z,33.28
2019-06-27T09:15:41.313Z,33.21
2019-06-27T09:18:12.223Z,33.66
2019-06-27T09:20:43.070Z,34.02
2019-06-27T09:23:14.051Z,34.32
2019-06-27T09:25:44.975Z,34.56
2019-06-27T09:28:16.146Z,34.62
2019-06-27T09:30:47.010Z,34.61
2019-06-27T09:33:17.878Z,34.56
2019-06-27T09:35:48.644Z,33.79
2019-06-27T09:38:19.415Z,33.94
2019-06-27T09:40:50.197Z,34.24
2019-06-27T09:43:21.101Z,33.80
2019-06-27T09:45:51.929Z,33.58
2019-06-27T09:48:23.091Z,34.12
2019-06-27T09:50:54.063Z,33.68
2019-06-27T09:53:24.983Z,33.15
2019-06-27T09:55:55.774Z,33.59
2019-06-27T09:58:26.538Z,34.22
2019-06-27T10:00:57.483Z,34.64
2019-06-27T10:03:28.282Z,34.36
2019-06-27T10:05:59.146Z,34.36
2019-06-27T10:08:29.990Z,34.36
2019-06-27T10:11:00.868Z,34.23
2019-06-27T10:13:31.889Z,34.30
2019-06-27T10:16:02.757Z,34.25
2019-06-27T10:18:33.510Z,35.27
2019-06-27T10:21:04.413Z,35.86
2019-06-27T10:23:35.161Z,35.38
2019-06-27T10:26:06.126Z,35.48
2019-06-27T10:28:36.994Z,35.20
2019-06-27T10:31:07.910Z,35.28
2019-06-27T10:33:38.673Z,35.09
2019-06-27T10:36:09.587Z,34.59
2019-06-27T10:38:40.457Z,35.07
2019-06-27T10:41:11.304Z,35.47
2019-06-27T10:43:42.213Z,35.82
2019-06-27T10:46:13.062Z,35.87
2019-06-27T10:48:43.896Z,35.46
2019-06-27T10:51:14.784Z,35.76
2019-06-27T10:53:45.666Z,36.17
2019-06-27T10:56:16.446Z,36.91
2019-06-27T10:58:47.306Z,37.14
2019-06-27T11:01:18.564Z,36.62
2019-06-27T11:03:50.036Z,36.91
2019-06-27T11:06:20.861Z,37.58
2019-06-27T11:08:51.618Z,38.13
2019-06-27T11:11:22.474Z,37.86
2019-06-27T11:13:58.887Z,38.06
2019-06-27T11:16:26.380Z,38.26
2019-06-27T11:18:57.556Z,38.45
2019-06-27T11:21:28.413Z,38.77
2019-06-27T11:23:59.181Z,38.62
2019-06-27T11:26:29.961Z,37.42
2019-06-27T11:29:00.857Z,37.28
2019-06-27T11:31:31.645Z,37.32
2019-06-27T11:34:02.410Z,37.01
2019-06-27T11:36:33.310Z,35.89
2019-06-27T11:39:05.593Z,36.76
2019-06-27T11:41:36.372Z,37.32
2019-06-27T11:44:07.235Z,37.63
2019-06-27T11:46:38.050Z,37.96
2019-06-27T11:49:08.842Z,38.75
2019-06-27T11:51:39.606Z,38.00
2019-06-27T11:54:10.378Z,38.28
2019-06-27T11:56:41.367Z,38.26
2019-06-27T11:59:12.294Z,38.77
2019-06-27T12:01:43.833Z,39.46
2019-06-27T12:04:14.706Z,39.12
2019-06-27T12:06:45.569Z,38.50
2019-06-27T12:09:16.383Z,38.27
2019-06-27T12:11:47.178Z,38.94
2019-06-27T12:14:19.621Z,39.12
2019-06-27T12:16:50.560Z,38.19
2019-06-27T12:19:21.385Z,36.59
2019-06-27T12:21:52.150Z,36.27
2019-06-27T12:24:23.026Z,37.22
2019-06-27T12:26:53.871Z,37.39
2019-06-27T12:29:24.614Z,38.19
2019-06-27T12:31:55.401Z,37.38
2019-06-27T12:34:26.152Z,36.63
2019-06-27T12:36:56.914Z,37.20
2019-06-27T12:39:27.694Z,38.21
2019-06-27T12:41:59.009Z,39.22
2019-06-27T12:44:29.870Z,38.81
2019-06-27T12:47:00.788Z,37.81
2019-06-27T12:49:50.136Z,37.95
2019-06-27T12:52:04.164Z,37.93
2019-06-27T12:54:35.070Z,37.10
2019-06-27T12:57:05.918Z,37.00
2019-06-27T12:59:39.548Z,37.06
2019-06-27T13:02:11.622Z,37.87
2019-06-27T13:04:41.935Z,37.83
2019-06-27T13:07:12.782Z,38.34
2019-06-27T13:09:43.635Z,39.01
2019-06-27T13:12:14.451Z,38.74
2019-06-27T13:14:45.314Z,39.19
2019-06-27T13:17:16.180Z,38.50
2019-06-27T13:19:47.470Z,37.25
2019-06-27T13:22:18.255Z,36.68
2019-06-27T13:24:49.059Z,35.74
2019-06-27T13:27:19.979Z,36.40
2019-06-27T13:29:53.685Z,36.74
2019-06-27T13:32:25.563Z,37.41
2019-06-27T13:34:56.500Z,38.19
2019-06-27T13:37:29.990Z,38.54
2019-06-27T13:39:59.857Z,38.93
2019-06-27T13:42:30.632Z,38.98
2019-06-27T13:45:01.547Z,37.71
2019-06-27T13:47:32.303Z,37.65
2019-06-27T13:50:03.341Z,37.36
2019-06-27T13:52:34.162Z,37.25
2019-06-27T13:55:05.437Z,37.36
2019-06-27T13:57:36.297Z,37.57
2019-06-27T14:00:08.187Z,37.15
2019-06-27T14:02:39.110Z,37.98
2019-06-27T14:05:10.024Z,38.78
2019-06-27T14:07:40.883Z,37.42
2019-06-27T14:10:12.111Z,36.28
2019-06-27T14:12:44.839Z,37.24
2019-06-27T14:15:15.706Z,36.99
2019-06-27T14:17:46.583Z,37.13
2019-06-27T14:20:17.483Z,37.84
2019-06-27T14:22:48.598Z,37.79
2019-06-27T14:25:31.323Z,38.28
2019-06-27T14:28:39.019Z,38.42
2019-06-27T14:31:13.875Z,38.25
2019-06-27T14:33:44.849Z,37.96
2019-06-27T14:36:15.617Z,37.63
2019-06-27T14:38:46.550Z,37.14
2019-06-27T14:41:17.308Z,37.41
2019-06-27T14:43:48.168Z,37.86
2019-06-27T14:46:19.050Z,36.92
2019-06-27T14:48:49.976Z,36.64
2019-06-27T14:51:20.896Z,36.16
2019-06-27T14:53:51.734Z,36.30
2019-06-27T14:56:22.659Z,36.82
2019-06-27T14:58:53.799Z,37.17
2019-06-27T15:01:24.662Z,37.31
2019-06-27T15:03:55.460Z,37.04
2019-06-27T15:06:26.360Z,36.59
2019-06-27T15:08:57.207Z,36.42
2019-06-27T15:11:28.091Z,36.98
2019-06-27T15:13:58.910Z,37.13
2019-06-27T15:16:29.735Z,36.99
2019-06-27T15:19:00.512Z,36.64
2019-06-27T15:21:31.364Z,36.16
2019-06-27T15:24:02.281Z,36.33
2019-06-27T15:26:33.144Z,36.06
2019-06-27T15:29:04.003Z,35.61
2019-06-27T15:31:36.681Z,35.21
2019-06-27T15:34:07.502Z,34.97
2019-06-27T15:36:38.757Z,35.73
2019-06-27T15:39:12.054Z,35.93
2019-06-27T15:41:42.194Z,35.20
2019-06-27T15:44:12.972Z,35.26
2019-06-27T15:46:43.853Z,34.72
2019-06-27T15:49:14.626Z,34.38
2019-06-27T15:51:45.393Z,34.55
2019-06-27T15:54:16.257Z,34.89
2019-06-27T15:56:47.162Z,35.30
2019-06-27T15:59:17.929Z,35.39
2019-06-27T16:01:48.856Z,35.01
2019-06-27T16:04:32.543Z,34.75
2019-06-27T16:06:52.720Z,34.26
2019-06-27T16:09:23.495Z,34.10
2019-06-27T16:11:54.586Z,33.83
2019-06-27T16:14:25.362Z,33.56
2019-06-27T16:16:56.292Z,33.66
2019-06-27T16:19:27.242Z,33.95
2019-06-27T16:21:58.227Z,33.85
2019-06-27T16:24:29.156Z,33.61
2019-06-27T16:27:06.443Z,33.23
2019-06-27T16:29:38.820Z,33.34
2019-06-27T16:32:09.748Z,33.42
2019-06-27T16:34:40.664Z,33.39
2019-06-27T16:37:11.722Z,32.91
2019-06-27T16:39:42.643Z,32.78
2019-06-27T16:42:13.583Z,33.08
2019-06-27T16:44:44.582Z,33.05
2019-06-27T16:47:15.837Z,32.69
2019-06-27T16:49:46.693Z,32.81
2019-06-27T16:52:17.615Z,32.74
2019-06-27T16:54:48.532Z,32.87
2019-06-27T16:57:19.456Z,32.36
2019-06-27T16:59:50.375Z,32.23
2019-06-27T17:02:21.116Z,32.13
2019-06-27T17:04:52.086Z,32.25
2019-06-27T17:07:23.043Z,32.11
2019-06-27T17:09:53.967Z,31.70
2019-06-27T17:12:24.947Z,31.80
2019-06-27T17:17:32.189Z,31.80
2019-06-27T17:20:05.552Z,31.54
2019-06-27T17:22:57.637Z,31.83
2019-06-27T17:25:37.329Z,31.73
2019-06-27T17:28:08.344Z,31.30
2019-06-27T17:30:42.633Z,31.00
2019-06-27T17:33:22.970Z,30.86
2019-06-27T17:35:56.482Z,30.76
2019-06-27T17:38:27.399Z,30.87
2019-06-27T17:40:59.011Z,31.03
2019-06-27T17:43:29.904Z,31.16
2019-06-27T17:46:00.767Z,31.09
2019-06-27T17:48:34.681Z,30.91
2019-06-27T17:51:07.818Z,30.56
2019-06-27T17:53:38.236Z,30.35
2019-06-27T17:56:10.233Z,30.06
2019-06-27T17:58:41.194Z,29.86
2019-06-27T18:01:12.115Z,29.81
2019-06-27T18:03:43.288Z,29.77
2019-06-27T18:06:14.160Z,29.69
2019-06-27T18:08:45.328Z,29.55
2019-06-27T18:11:16.204Z,29.46
2019-06-27T18:13:47.154Z,29.43
2019-06-27T18:16:18.032Z,29.36
2019-06-27T18:18:48.964Z,29.22
2019-06-27T18:21:19.816Z,29.11
2019-06-27T18:23:50.830Z,28.94
2019-06-27T18:26:21.721Z,28.76
2019-06-27T18:28:52.663Z,28.69
2019-06-27T18:31:23.694Z,28.58
2019-06-27T18:33:54.605Z,28.29
2019-06-27T18:36:25.590Z,28.29
2019-06-27T18:38:56.444Z,27.93
2019-06-27T18:41:27.259Z,27.93
2019-06-27T18:43:58.382Z,27.54
2019-06-27T18:46:29.493Z,27.43
2019-06-27T18:49:00.725Z,27.30
2019-06-27T18:51:31.655Z,27.13
2019-06-27T18:54:02.418Z,27.13
2019-06-27T18:56:33.562Z,26.82
2019-06-27T18:59:04.818Z,26.68
2019-06-27T19:01:35.820Z,26.56
2019-06-27T19:04:06.854Z,26.52
2019-06-27T19:06:37.882Z,26.52
2019-06-27T19:09:09.158Z,26.28
2019-06-27T19:11:39.996Z,26.28
2019-06-27T19:14:10.853Z,26.13
2019-06-27T19:16:41.668Z,26.02
2019-06-27T19:19:14.185Z,25.89
2019-06-27T19:21:46.616Z,25.78
2019-06-27T19:24:19.102Z,25.70
2019-06-27T19:26:53.277Z,25.66
2019-06-27T19:29:25.891Z,25.51
2019-06-27T19:31:56.824Z,25.43
2019-06-27T19:34:27.677Z,25.32
2019-06-27T19:37:01.511Z,25.30
2019-06-27T19:39:32.325Z,25.21
2019-06-27T19:42:03.173Z,25.13
2019-06-27T19:44:34.078Z,25.09
2019-06-27T19:47:04.931Z,25.00
2019-06-27T19:49:35.745Z,24.90
2019-06-27T19:52:06.601Z,24.84
2019-06-27T19:54:37.289Z,24.78
2019-06-27T19:57:08.093Z,24.73
2019-06-27T19:59:38.853Z,24.60
2019-06-27T20:02:09.823Z,24.54
2019-06-27T20:04:41.428Z,24.44
2019-06-27T20:07:12.237Z,24.41
2019-06-27T20:09:43.227Z,24.30
2019-06-27T20:12:14.066Z,24.20
2019-06-27T20:14:44.836Z,24.20
2019-06-27T20:17:16.699Z,24.20
2019-06-27T20:19:47.508Z,24.12
2019-06-27T20:22:18.298Z,24.03
2019-06-27T20:24:49.133Z,23.97
2019-06-27T20:27:19.962Z,23.85
2019-06-27T20:29:50.728Z,23.78
2019-06-27T20:32:21.458Z,23.74
2019-06-27T20:34:52.214Z,23.71
2019-06-27T20:37:22.960Z,23.59
2019-06-27T20:39:53.825Z,23.49
2019-06-27T20:42:24.638Z,23.45
2019-06-27T20:44:55.433Z,23.40
2019-06-27T20:47:26.258Z,23.33
2019-06-27T20:49:57.018Z,23.23
2019-06-27T20:52:27.806Z,23.14
2019-06-27T20:54:58.639Z,23.14
2019-06-27T20:57:29.442Z,23.09
2019-06-27T21:00:00.247Z,22.99
2019-06-27T21:02:31.015Z,22.92
2019-06-27T21:05:01.950Z,22.83
2019-06-27T21:07:33.019Z,22.78
2019-06-27T21:10:08.627Z,22.72
2019-06-27T21:12:39.397Z,22.68
2019-06-27T21:15:11.834Z,22.57
2019-06-27T21:17:42.783Z,22.51
2019-06-27T21:20:13.828Z,22.42
2019-06-27T21:22:46.100Z,22.34
2019-06-27T21:25:17.288Z,22.27
2019-06-27T21:27:48.391Z,22.24
2019-06-27T21:30:19.225Z,22.21
2019-06-27T21:32:50.022Z,22.17
2019-06-27T21:35:20.780Z,22.15
2019-06-27T21:37:54.839Z,22.07
2019-06-27T21:40:25.722Z,22.01
2019-06-27T21:42:56.612Z,21.98
2019-06-27T21:45:27.697Z,21.92
2019-06-27T21:47:58.602Z,21.85
2019-06-27T21:50:29.388Z,21.77
2019-06-27T21:53:00.153Z,21.70
2019-06-27T21:55:31.088Z,21.56
2019-06-27T21:58:01.848Z,21.44
2019-06-27T22:00:33.403Z,21.44
2019-06-27T22:03:04.693Z,21.38
2019-06-27T22:05:35.486Z,21.28
2019-06-27T22:08:06.326Z,21.29
2019-06-27T22:10:37.318Z,21.27
2019-06-27T22:13:08.093Z,21.18
2019-06-27T22:15:38.955Z,21.16
2019-06-27T22:18:09.795Z,21.13
2019-06-27T22:20:40.648Z,21.13
2019-06-27T22:23:11.465Z,21.06
2019-06-27T22:25:42.238Z,20.93
2019-06-27T22:28:13.203Z,20.89
2019-06-27T22:30:44.704Z,20.93
2019-06-27T22:33:15.540Z,21.01
2019-06-27T22:35:46.311Z,20.93
2019-06-27T22:38:34.867Z,20.82
2019-06-27T22:41:23.972Z,20.75
2019-06-27T22:44:12.892Z,20.64
2019-06-27T22:47:01.303Z,20.58
2019-06-27T22:49:31.787Z,20.49
2019-06-27T22:52:16.057Z,20.38
2019-06-27T22:54:51.226Z,20.32
2019-06-27T22:57:22.144Z,20.31
2019-06-27T22:59:53.063Z,20.31
2019-06-27T23:02:23.773Z,20.27
2019-06-27T23:04:54.540Z,20.20
2019-06-27T23:07:25.270Z,20.18
2019-06-27T23:09:57.489Z,20.12
2019-06-27T23:12:28.457Z,20.06
2019-06-27T23:14:59.148Z,20.02
2019-06-27T23:17:29.923Z,19.96
2019-06-27T23:20:00.722Z,19.86
2019-06-27T23:22:31.495Z,19.76
2019-06-27T23:25:02.302Z,19.69
2019-06-27T23:27:33.105Z,19.61
2019-06-27T23:30:04.670Z,19.51
2019-06-27T23:32:35.372Z,19.44
2019-06-27T23:35:07.321Z,19.37
2019-06-27T23:37:41.084Z,19.34
2019-06-27T23:40:15.041Z,19.29
2019-06-27T23:42:46.016Z,19.28
2019-06-27T23:45:16.868Z,19.32
2019-06-27T23:47:47.726Z,19.40
2019-06-27T23:50:21.280Z,19.39
2019-06-27T23:52:52.033Z,19.39
2019-06-27T23:55:22.911Z,19.37
2019-06-27T23:57:53.600Z,19.38
